Terminal Aerodrome Forecast
Issued by NWS Portland, OR

Home | Current Version | Previous Version | Text Only | Print | Product List | Glossary On
Versions: 1 2 3 4 5 6 7 8 9 10 11 12 13 14 15 16 17 18 19 20 21 22 23 24 25 26 27 28 29 30 31 32 33 34 35 36 37
504
FTUS46 KPQR 261515 AAA
TAFAST
TAF AMD
KAST 261515Z 2615/2712 25005KT P6SM SCT020 OVC045
      TEMPO 2615/2618 5SM -RADZ BR BKN020
     FM261900 30012KT P6SM VCSH BKN025 BKN040
     FM270500 28008KT P6SM SCT015 OVC025=

USA.gov is the U.S. government's official web portal to all federal, state and local government web resources and services.